Terminal Aerodrome Forecast
Issued by NWS

Home | Current Version | Previous Version | Text Only | Print | Product List | Glossary On
Versions: 1 2 3 4 5 6 7 8 9 10 11 12
701
FTUS43 KLSX 172325
TAFCPS
TAF
KCPS 172325Z 1800/1824 23004KT P6SM SKC
     FM181600 21010KT P6SM SKC=

USA.gov is the U.S. government's official web portal to all federal, state and local government web resources and services.